Terminal Aerodrome Forecast
Issued by NWS

Home | Current Version | Previous Version | Text Only | Print | Product List | Glossary On
Versions: 1 2 3 4 5 6 7 8 9 10 11 12 13 14 15 16 17 18 19 20 21 22
000
FTUS43 KDMX 130534
TAFMCW
TAF
KMCW 130534Z 1306/1406 20011KT P6SM BKN080
     FM131100 24009KT P6SM BKN060
     FM131300 31016G25KT P6SM -RASN OVC015
     FM131600 31026G40KT P6SM VCSH OVC014
     FM132200 32025G37KT P6SM BKN015
     FM140200 34015G25KT P6SM BKN022=

USA.gov is the U.S. government's official web portal to all federal, state and local government web resources and services.